DTTA/TUN METAR and TAF weather

Enter ICAO airport designator
Station Type Date Time Source
DTTA METAR 2021/07/28 05:00 UTC NOAA

DTTA 280500Z 18006KT 9999 FEW026 26/10 Q1014


Station Type Date Time Source
DTTA Decoded METAR 2021/07/28 05:00 UTC NOAA

Tunis-Carthage, Tunisia (DTTA) 36-50N 010-14E 4M
Jul 28, 2021 - 01:00 AM EDT / 2021.07.28 0500 UTC
Wind: from the S (180 degrees) at 7 MPH (6 KT):0
Visibility: greater than 7 mile(s):0
Sky conditions: mostly clear
Temperature: 78 F (26 C)
Dew Point: 50 F (10 C)
Relative Humidity: 36%
Pressure (altimeter): 29.94 in. Hg (1014 hPa)
ob: DTTA 280500Z 18006KT 9999 FEW026 26/10 Q1014
cycle: 5

Station Type Date Time Source
DTTA TAF 2021/07/27 18:39 UTC NOAA

TAF DTTA 271700Z 2718/2818 12012KT CAVOK
BECMG 2720/2722 18010KT PROB40
TEMPO 2812/2818 14020KT

Example: see airport list